createdAt,value
2022-10-11T00:01:13.672Z,3.03
2022-10-11T00:03:58.719Z,3.30
2022-10-11T00:06:44.000Z,2.80
2022-10-11T00:09:30.232Z,3.23
2022-10-11T00:12:15.458Z,3.17
2022-10-11T00:15:00.883Z,3.00
2022-10-11T00:17:46.196Z,2.97
2022-10-11T00:20:31.326Z,3.10
2022-10-11T00:23:17.294Z,3.00
2022-10-11T00:26:06.442Z,2.60
2022-10-11T00:28:52.960Z,2.90
2022-10-11T00:31:38.590Z,2.90
2022-10-11T00:34:24.379Z,2.90
2022-10-11T00:37:10.045Z,2.80
2022-10-11T00:39:55.251Z,2.60
2022-10-11T00:42:40.713Z,2.90
2022-10-11T00:45:26.268Z,2.80
2022-10-11T00:48:23.399Z,2.50
2022-10-11T00:51:43.617Z,2.90
2022-10-11T00:54:33.210Z,2.73
2022-10-11T00:57:22.401Z,3.10
2022-10-11T01:00:10.963Z,2.67
2022-10-11T01:02:56.862Z,2.57
2022-10-11T01:05:42.300Z,2.80
2022-10-11T01:08:27.920Z,2.57
2022-10-11T01:11:17.240Z,2.80
2022-10-11T01:14:36.431Z,2.63
2022-10-11T01:17:33.692Z,2.40
2022-10-11T01:20:30.874Z,2.53
2022-10-11T01:23:24.376Z,2.30
2022-10-11T01:26:18.827Z,2.40
2022-10-11T01:29:15.326Z,2.40
2022-10-11T01:32:21.787Z,2.37
2022-10-11T01:35:15.235Z,2.30
2022-10-11T01:38:07.258Z,2.80
2022-10-11T01:41:05.943Z,2.43
2022-10-11T01:44:00.315Z,2.10
2022-10-11T01:46:45.916Z,2.73
2022-10-11T01:49:31.331Z,2.57
2022-10-11T01:52:16.461Z,2.50
2022-10-11T01:55:14.065Z,2.43
2022-10-11T01:57:59.445Z,2.20
2022-10-11T02:01:10.851Z,2.20
2022-10-11T02:04:10.835Z,2.30
2022-10-11T02:07:15.836Z,2.40
2022-10-11T02:10:15.433Z,2.20
2022-10-11T02:13:07.958Z,2.30
2022-10-11T02:15:56.190Z,2.35
2022-10-11T02:18:47.064Z,2.23
2022-10-11T02:21:36.296Z,2.60
2022-10-11T02:24:27.655Z,2.20
2022-10-11T02:27:14.659Z,2.43
2022-10-11T02:30:02.772Z,2.20
2022-10-11T02:32:50.402Z,2.30
2022-10-11T02:35:42.057Z,2.00
2022-10-11T02:38:38.786Z,2.20
2022-10-11T02:41:38.605Z,2.40
2022-10-11T02:44:32.020Z,2.40
2022-10-11T02:50:04.282Z,2.27
2022-10-11T02:52:49.562Z,2.33
2022-10-11T02:55:35.171Z,2.23
2022-10-11T02:58:21.963Z,2.13
2022-10-11T03:01:07.841Z,2.30
2022-10-11T03:03:52.913Z,2.23
2022-10-11T03:06:38.177Z,2.37
2022-10-11T03:09:23.450Z,2.53
2022-10-11T03:12:08.665Z,2.80
2022-10-11T03:14:54.674Z,2.77
2022-10-11T03:17:39.837Z,2.60
2022-10-11T03:20:25.263Z,2.60
2022-10-11T03:23:11.425Z,2.77
2022-10-11T03:25:57.064Z,2.60
2022-10-11T03:28:42.640Z,3.30
2022-10-11T03:31:27.866Z,2.57
2022-10-11T03:34:15.383Z,2.50
2022-10-11T03:37:00.789Z,2.60
2022-10-11T03:39:46.144Z,2.77
2022-10-11T03:42:31.609Z,2.53
2022-10-11T03:45:16.866Z,2.67
2022-10-11T03:48:02.419Z,2.80
2022-10-11T03:50:49.218Z,2.43
2022-10-11T03:53:34.731Z,2.60
2022-10-11T03:56:20.083Z,2.80
2022-10-11T03:59:05.316Z,2.60
2022-10-11T04:01:50.705Z,2.80
2022-10-11T04:04:36.039Z,2.97
2022-10-11T04:07:21.683Z,2.70
2022-10-11T04:10:08.223Z,2.60
2022-10-11T04:12:53.781Z,2.40
2022-10-11T04:15:39.490Z,2.83
2022-10-11T04:18:25.200Z,2.60
2022-10-11T04:21:10.452Z,2.40
2022-10-11T04:23:55.764Z,2.60
2022-10-11T04:26:41.049Z,2.70
2022-10-11T04:29:30.117Z,2.77
2022-10-11T04:32:17.877Z,2.90
2022-10-11T04:35:04.835Z,2.23
2022-10-11T04:37:50.599Z,2.50
2022-10-11T04:40:35.976Z,2.13
2022-10-11T04:43:21.804Z,2.70
2022-10-11T04:46:07.973Z,2.80
2022-10-11T04:48:54.099Z,2.90
2022-10-11T04:51:39.380Z,2.80
2022-10-11T04:54:24.667Z,2.27
2022-10-11T04:57:10.253Z,2.60
2022-10-11T04:59:56.086Z,2.50
2022-10-11T05:02:41.693Z,2.47
2022-10-11T05:05:26.888Z,2.03
2022-10-11T05:08:12.427Z,2.60
2022-10-11T05:11:04.118Z,2.33
2022-10-11T05:13:49.564Z,2.73
2022-10-11T05:16:34.742Z,2.93
2022-10-11T05:19:20.060Z,3.00
2022-10-11T05:22:05.341Z,2.43
2022-10-11T05:24:50.758Z,2.63
2022-10-11T05:27:35.914Z,2.73
2022-10-11T05:30:21.296Z,2.47
2022-10-11T05:33:06.647Z,2.40
2022-10-11T05:35:52.229Z,2.83
2022-10-11T05:38:38.659Z,2.53
2022-10-11T05:41:24.261Z,2.67
2022-10-11T05:44:09.491Z,2.03
2022-10-11T05:46:54.777Z,2.63
2022-10-11T05:49:40.215Z,2.47
2022-10-11T05:52:25.812Z,2.23
2022-10-11T05:55:11.292Z,2.43
2022-10-11T05:57:57.604Z,2.30
2022-10-11T06:00:42.831Z,2.30
2022-10-11T06:03:28.313Z,2.37
2022-10-11T06:06:13.889Z,2.50
2022-10-11T06:08:59.407Z,2.23
2022-10-11T06:11:45.547Z,2.07
2022-10-11T06:14:30.976Z,2.20
2022-10-11T06:17:16.294Z,2.20
2022-10-11T06:20:01.928Z,2.13
2022-10-11T06:22:47.463Z,2.20
2022-10-11T06:25:32.820Z,2.20
2022-10-11T06:28:18.055Z,2.20
2022-10-11T06:31:05.296Z,2.20
2022-10-11T06:33:51.108Z,2.03
2022-10-11T06:36:36.725Z,2.00
2022-10-11T06:39:22.061Z,1.90
2022-10-11T06:42:07.391Z,2.20
2022-10-11T06:44:52.923Z,1.97
2022-10-11T06:47:38.220Z,2.60
2022-10-11T06:50:47.205Z,2.47
2022-10-11T06:53:28.997Z,1.80
2022-10-11T06:56:14.335Z,2.27
2022-10-11T06:59:00.221Z,2.20
2022-10-11T07:01:45.551Z,1.80
2022-10-11T07:04:30.747Z,1.77
2022-10-11T07:07:15.979Z,2.10
2022-10-11T07:10:01.298Z,1.70
2022-10-11T07:12:46.655Z,1.97
2022-10-11T07:15:31.900Z,2.27
2022-10-11T07:18:17.177Z,1.53
2022-10-11T07:21:06.911Z,2.00
2022-10-11T07:23:52.696Z,2.00
2022-10-11T07:26:38.579Z,1.80
2022-10-11T07:29:24.817Z,2.03
2022-10-11T07:32:10.206Z,1.87
2022-10-11T07:34:56.608Z,2.00
2022-10-11T07:37:42.084Z,2.00
2022-10-11T07:40:27.080Z,2.03
2022-10-11T07:43:13.923Z,1.80
2022-10-11T07:46:04.445Z,1.80
2022-10-11T07:48:50.369Z,1.83
2022-10-11T07:51:35.566Z,1.83
2022-10-11T07:54:20.938Z,1.80
2022-10-11T07:57:06.039Z,1.80
2022-10-11T07:59:51.623Z,1.80
2022-10-11T08:02:36.845Z,2.00
2022-10-11T08:05:22.176Z,1.97
2022-10-11T08:08:07.526Z,2.00
2022-10-11T08:10:52.829Z,1.80
2022-10-11T08:13:38.407Z,1.80
2022-10-11T08:16:23.957Z,1.90
2022-10-11T08:19:10.552Z,1.77
2022-10-11T08:21:55.855Z,1.87
2022-10-11T08:24:41.071Z,1.97
2022-10-11T08:27:26.561Z,1.80
2022-10-11T08:30:12.611Z,1.80
2022-10-11T08:32:57.698Z,1.80
2022-10-11T08:35:43.052Z,1.70
2022-10-11T08:38:28.328Z,1.67
2022-10-11T08:41:22.632Z,1.87
2022-10-11T08:44:51.901Z,2.00
2022-10-11T08:47:45.182Z,1.83
2022-10-11T08:50:30.535Z,1.90
2022-10-11T08:53:28.746Z,2.03
2022-10-11T08:56:16.405Z,1.73
2022-10-11T08:59:15.471Z,1.50
2022-10-11T09:02:20.078Z,1.53
2022-10-11T09:05:06.337Z,1.90
2022-10-11T09:08:10.073Z,1.57
2022-10-11T09:11:04.494Z,1.83
2022-10-11T09:14:08.281Z,1.60
2022-10-11T09:17:04.571Z,1.80
2022-10-11T09:20:00.077Z,1.83
2022-10-11T09:23:04.912Z,1.33
2022-10-11T09:25:57.324Z,1.50
2022-10-11T09:29:01.181Z,1.47
2022-10-11T09:31:52.084Z,1.77
2022-10-11T09:34:38.113Z,1.80
2022-10-11T09:37:39.931Z,1.40
2022-10-11T09:40:35.354Z,1.87
2022-10-11T09:43:20.554Z,1.30
2022-10-11T09:46:20.648Z,1.57
2022-10-11T09:49:11.374Z,1.50
2022-10-11T09:52:00.232Z,1.60
2022-10-11T09:54:58.310Z,1.63
2022-10-11T09:57:54.578Z,1.70
2022-10-11T10:00:39.808Z,1.60
2022-10-11T10:03:36.472Z,1.47
2022-10-11T10:06:27.592Z,1.43
2022-10-11T10:09:30.231Z,1.60
2022-10-11T10:12:21.725Z,1.60
2022-10-11T10:15:23.424Z,1.40
2022-10-11T10:18:24.482Z,1.43
2022-10-11T10:21:14.703Z,1.60
2022-10-11T10:24:04.695Z,1.33
2022-10-11T10:27:07.046Z,1.70
2022-10-11T10:30:07.853Z,1.80
2022-10-11T10:33:11.609Z,1.53
2022-10-11T10:36:04.399Z,1.45
2022-10-11T10:38:56.427Z,1.30
2022-10-11T10:41:41.874Z,1.60
2022-10-11T10:44:27.153Z,1.23
2022-10-11T10:47:22.679Z,1.60
2022-10-11T10:50:44.389Z,1.60
2022-10-11T10:53:40.765Z,1.43
2022-10-11T10:56:50.200Z,1.60
2022-10-11T11:00:01.770Z,1.50
2022-10-11T11:02:53.233Z,1.40
2022-10-11T11:05:52.725Z,1.77
2022-10-11T11:08:53.130Z,1.67
2022-10-11T11:11:53.708Z,1.43
2022-10-11T11:14:55.378Z,1.60
2022-10-11T11:18:18.387Z,1.40
2022-10-11T11:21:13.084Z,1.50
2022-10-11T11:24:01.359Z,1.30
2022-10-11T11:27:10.200Z,1.43
2022-10-11T11:30:13.647Z,1.37
2022-10-11T11:33:18.980Z,1.30
2022-10-11T11:36:13.655Z,1.57
2022-10-11T11:39:02.742Z,1.37
2022-10-11T11:42:04.468Z,1.50
2022-10-11T11:44:51.716Z,1.23
2022-10-11T11:47:46.215Z,1.33
2022-10-11T11:50:43.800Z,1.20
2022-10-11T11:53:59.195Z,1.40
2022-10-11T11:56:44.715Z,1.43
2022-10-11T11:59:55.184Z,1.40
2022-10-11T12:02:51.616Z,1.20
2022-10-11T12:05:37.319Z,1.30
2022-10-11T12:08:30.932Z,1.37
2022-10-11T12:11:25.671Z,1.23
2022-10-11T12:14:16.403Z,1.13
2022-10-11T12:17:07.203Z,1.43
2022-10-11T12:20:09.648Z,1.23
2022-10-11T12:23:19.939Z,1.10
2022-10-11T12:26:27.370Z,1.30
2022-10-11T12:29:20.139Z,1.40
2022-10-11T12:32:06.549Z,1.40
2022-10-11T12:35:30.731Z,1.37
2022-10-11T12:38:22.127Z,1.30
2022-10-11T12:41:10.743Z,1.53
2022-10-11T12:44:24.121Z,1.33
2022-10-11T12:47:34.539Z,1.10
2022-10-11T12:50:40.436Z,1.33
2022-10-11T12:53:42.758Z,1.37
2022-10-11T12:56:49.833Z,1.43
2022-10-11T12:59:41.536Z,2.10
2022-10-11T13:02:35.932Z,2.10
2022-10-11T13:05:35.947Z,2.43
2022-10-11T13:08:31.454Z,2.47
2022-10-11T13:11:21.231Z,2.87
2022-10-11T13:14:11.933Z,2.93
2022-10-11T13:17:06.770Z,3.60
2022-10-11T13:20:00.818Z,3.30
2022-10-11T13:22:49.961Z,2.63
2022-10-11T13:25:38.769Z,3.33
2022-10-11T13:28:25.296Z,3.57
2022-10-11T13:31:11.024Z,3.77
2022-10-11T13:33:59.270Z,3.47
2022-10-11T13:36:44.608Z,3.20
2022-10-11T13:39:35.333Z,3.70
2022-10-11T13:42:28.099Z,3.37
2022-10-11T13:45:14.561Z,3.65
2022-10-11T13:47:59.786Z,3.20
2022-10-11T13:50:52.306Z,3.37
2022-10-11T13:53:37.755Z,3.50
2022-10-11T13:56:23.128Z,3.63
2022-10-11T13:59:17.802Z,3.60
2022-10-11T14:02:04.483Z,3.90
2022-10-11T14:04:50.138Z,4.00
2022-10-11T14:07:39.230Z,3.47
2022-10-11T14:10:24.733Z,3.73
2022-10-11T14:13:29.288Z,3.50
2022-10-11T14:16:20.758Z,4.37
2022-10-11T14:19:11.202Z,4.10
2022-10-11T14:21:56.825Z,3.90
2022-10-11T14:24:43.216Z,4.20
2022-10-11T14:27:28.892Z,4.17
2022-10-11T14:30:25.515Z,4.20
2022-10-11T14:33:12.154Z,4.40
2022-10-11T14:35:57.614Z,4.13
2022-10-11T14:38:43.017Z,4.57
2022-10-11T14:41:28.282Z,4.10
2022-10-11T14:44:14.646Z,3.97
2022-10-11T14:47:01.507Z,4.00
2022-10-11T14:49:46.885Z,3.87
2022-10-11T14:52:32.763Z,3.37
2022-10-11T14:55:18.253Z,3.87
2022-10-11T14:58:04.577Z,4.07
2022-10-11T15:00:50.084Z,4.20
2022-10-11T15:03:35.459Z,3.70
2022-10-11T15:06:24.321Z,3.83
2022-10-11T15:09:10.335Z,3.20
2022-10-11T15:11:56.552Z,3.73
2022-10-11T15:14:41.793Z,4.07
2022-10-11T15:17:26.936Z,3.67
2022-10-11T15:20:24.099Z,3.50
2022-10-11T15:23:10.468Z,3.73
2022-10-11T15:25:56.228Z,3.23
2022-10-11T15:28:42.265Z,3.27
2022-10-11T15:31:27.771Z,4.07
2022-10-11T15:34:13.252Z,15.17
2022-10-11T15:36:58.473Z,23.17
2022-10-11T15:39:43.960Z,63.83
2022-10-11T15:42:29.238Z,56.47
2022-10-11T15:45:16.261Z,62.10
2022-10-11T15:48:02.875Z,66.27
2022-10-11T15:50:50.124Z,68.37
2022-10-11T15:53:35.774Z,73.53
2022-10-11T15:56:21.269Z,90.53
2022-10-11T15:59:06.379Z,104.57
2022-10-11T16:01:52.519Z,118.90
2022-10-11T16:04:38.235Z,124.70
2022-10-11T16:07:23.528Z,130.30
2022-10-11T16:10:09.596Z,131.37
2022-10-11T16:12:56.012Z,104.40
2022-10-11T16:15:43.368Z,85.23
2022-10-11T16:18:34.881Z,101.13
2022-10-11T16:21:23.963Z,106.13
2022-10-11T16:24:09.497Z,107.27
2022-10-11T16:26:54.830Z,106.87
2022-10-11T16:29:40.223Z,111.73
2022-10-11T16:32:25.506Z,116.70
2022-10-11T16:35:12.997Z,117.30
2022-10-11T16:37:58.291Z,118.40
2022-10-11T16:40:43.816Z,118.93
2022-10-11T16:43:29.456Z,116.77
2022-10-11T16:46:14.902Z,112.23
2022-10-11T16:49:01.633Z,110.07
2022-10-11T16:51:47.144Z,107.87
2022-10-11T16:54:32.506Z,104.27
2022-10-11T16:57:19.974Z,100.87
2022-10-11T17:00:09.665Z,96.00
2022-10-11T17:02:55.271Z,92.83
2022-10-11T17:05:40.876Z,92.77
2022-10-11T17:08:26.912Z,95.20
2022-10-11T17:11:12.472Z,91.83
2022-10-11T17:14:00.624Z,93.03
2022-10-11T17:16:46.159Z,90.60
2022-10-11T17:19:32.594Z,85.07
2022-10-11T17:22:21.850Z,79.90
2022-10-11T17:25:08.179Z,79.23
2022-10-11T17:27:56.610Z,77.27
2022-10-11T17:30:43.896Z,75.00
2022-10-11T17:33:30.535Z,63.57
2022-10-11T17:36:23.964Z,56.50
2022-10-11T17:39:17.096Z,66.03
2022-10-11T17:42:07.401Z,57.15
2022-10-11T17:44:53.222Z,54.57
2022-10-11T17:47:39.109Z,53.13
2022-10-11T17:50:24.927Z,52.47
2022-10-11T17:53:10.579Z,49.53
2022-10-11T17:55:59.056Z,46.60
2022-10-11T17:58:45.568Z,48.50
2022-10-11T18:01:31.086Z,46.57
2022-10-11T18:04:19.338Z,45.33
2022-10-11T18:07:05.296Z,44.40
2022-10-11T18:09:50.918Z,42.67
2022-10-11T18:12:36.226Z,41.50
2022-10-11T18:15:22.025Z,45.97
2022-10-11T18:18:07.301Z,40.47
2022-10-11T18:20:53.452Z,39.37
2022-10-11T18:23:39.422Z,38.03
2022-10-11T18:26:30.157Z,38.07
2022-10-11T18:29:16.408Z,34.07
2022-10-11T18:32:02.148Z,33.33
2022-10-11T18:34:47.979Z,32.10
2022-10-11T18:37:34.023Z,34.33
2022-10-11T18:40:19.665Z,33.77
2022-10-11T18:43:05.546Z,34.10
2022-10-11T18:45:51.323Z,33.60
2022-10-11T18:48:40.959Z,33.87
2022-10-11T18:51:28.543Z,32.07
2022-10-11T18:54:18.510Z,31.27
2022-10-11T18:57:06.783Z,31.80
2022-10-11T18:59:53.229Z,30.30
2022-10-11T19:02:38.643Z,27.83
2022-10-11T19:05:23.947Z,29.73
2022-10-11T19:08:09.207Z,29.33
2022-10-11T19:10:54.511Z,27.03
2022-10-11T19:13:40.182Z,27.43
2022-10-11T19:16:29.427Z,27.00
2022-10-11T19:19:14.904Z,26.97
2022-10-11T19:22:02.133Z,27.03
2022-10-11T19:24:47.400Z,26.97
2022-10-11T19:27:32.803Z,24.97
2022-10-11T19:30:18.181Z,26.97
2022-10-11T19:33:04.781Z,25.53
2022-10-11T19:35:55.459Z,25.30
2022-10-11T19:38:44.562Z,24.40
2022-10-11T19:41:29.723Z,24.17
2022-10-11T19:44:16.016Z,23.13
2022-10-11T19:47:05.284Z,23.67
2022-10-11T19:49:50.541Z,23.93
2022-10-11T19:52:35.864Z,21.70
2022-10-11T19:55:21.140Z,23.93
2022-10-11T19:58:08.387Z,22.40
2022-10-11T20:01:01.965Z,23.43
2022-10-11T20:03:53.013Z,22.07
2022-10-11T20:06:41.397Z,22.63
2022-10-11T20:09:30.860Z,22.07
2022-10-11T20:12:16.586Z,22.43
2022-10-11T20:15:01.843Z,22.10
2022-10-11T20:17:50.228Z,21.13
2022-10-11T20:20:35.924Z,21.60
2022-10-11T20:23:27.250Z,20.70
2022-10-11T20:26:16.308Z,21.50
2022-10-11T20:29:01.694Z,19.97
2022-10-11T20:31:46.949Z,20.77
2022-10-11T20:34:32.243Z,20.30
2022-10-11T20:37:17.657Z,21.37
2022-10-11T20:40:06.448Z,21.60
2022-10-11T20:42:52.175Z,20.63
2022-10-11T20:45:37.448Z,20.20
2022-10-11T20:48:22.712Z,21.30
2022-10-11T20:51:10.254Z,20.77
2022-10-11T20:53:56.535Z,20.90
2022-10-11T20:56:41.984Z,19.77
2022-10-11T20:59:27.528Z,20.57
2022-10-11T21:02:18.030Z,20.47
2022-10-11T21:05:05.494Z,19.93
2022-10-11T21:07:51.013Z,19.60
2022-10-11T21:10:36.436Z,19.63
2022-10-11T21:13:22.674Z,19.30
2022-10-11T21:16:14.588Z,18.73
2022-10-11T21:19:01.307Z,18.80
2022-10-11T21:21:52.519Z,19.40
2022-10-11T21:24:38.985Z,18.80
2022-10-11T21:27:27.087Z,18.83
2022-10-11T21:30:12.614Z,18.50
2022-10-11T21:32:57.983Z,18.53
2022-10-11T21:35:43.550Z,17.17
2022-10-11T21:38:29.179Z,18.07
2022-10-11T21:41:17.580Z,17.97
2022-10-11T21:44:03.079Z,18.53
2022-10-11T21:47:06.165Z,17.93
2022-10-11T21:49:52.240Z,17.17
2022-10-11T21:52:37.764Z,17.13
2022-10-11T21:55:23.241Z,17.43
2022-10-11T21:58:08.563Z,17.40
2022-10-11T22:00:53.913Z,18.20
2022-10-11T22:03:39.164Z,17.00
2022-10-11T22:06:24.244Z,16.07
2022-10-11T22:09:10.319Z,16.80
2022-10-11T22:11:56.793Z,16.03
2022-10-11T22:14:42.083Z,16.30
2022-10-11T22:17:27.310Z,16.70
2022-10-11T22:20:12.522Z,16.80
2022-10-11T22:22:57.731Z,14.57
2022-10-11T22:25:42.923Z,16.30
2022-10-11T22:28:28.210Z,16.40
2022-10-11T22:31:14.931Z,15.63
2022-10-11T22:34:01.276Z,15.80
2022-10-11T22:36:47.603Z,15.07
2022-10-11T22:39:33.018Z,14.57
2022-10-11T22:42:18.263Z,15.90
2022-10-11T22:45:04.323Z,15.40
2022-10-11T22:47:49.772Z,14.63
2022-10-11T22:50:35.089Z,14.97
2022-10-11T22:53:20.604Z,14.77
2022-10-11T22:56:06.682Z,14.43
2022-10-11T22:58:52.000Z,15.00
2022-10-11T23:01:37.331Z,14.33
2022-10-11T23:04:22.654Z,13.87
2022-10-11T23:07:07.867Z,14.10
2022-10-11T23:09:53.176Z,14.43
2022-10-11T23:12:38.755Z,14.60
2022-10-11T23:15:24.302Z,14.07
2022-10-11T23:18:10.038Z,14.10
2022-10-11T23:20:55.352Z,13.53
2022-10-11T23:23:40.833Z,13.63
2022-10-11T23:26:26.120Z,13.17
2022-10-11T23:29:11.320Z,13.27
2022-10-11T23:31:56.713Z,13.30
2022-10-11T23:34:42.067Z,12.70
2022-10-11T23:37:27.294Z,12.87
2022-10-11T23:40:12.675Z,12.70
2022-10-11T23:42:58.050Z,12.97
2022-10-11T23:45:45.210Z,13.07
2022-10-11T23:48:30.711Z,12.27
2022-10-11T23:51:16.208Z,12.57
2022-10-11T23:54:01.339Z,13.07
2022-10-11T23:56:46.630Z,12.37
2022-10-11T23:59:31.884Z,12.43
